sensor_id;sensor_type;location;lat;lon;timestamp;P1;durP1;ratioP1;P2;durP2;ratioP2
71753;SDS011;59593;51.716;7.016;2024-02-21T00:01:39;25.47;;;13.23;;
71753;SDS011;59593;51.716;7.016;2024-02-21T00:04:04;30.53;;;13.13;;
71753;SDS011;59593;51.716;7.016;2024-02-21T00:06:30;27.63;;;12.93;;
71753;SDS011;59593;51.716;7.016;2024-02-21T00:08:56;29.93;;;13.57;;
71753;SDS011;59593;51.716;7.016;2024-02-21T00:11:22;29.50;;;13.17;;
71753;SDS011;59593;51.716;7.016;2024-02-21T00:13:47;30.27;;;13.93;;
71753;SDS011;59593;51.716;7.016;2024-02-21T00:16:13;29.97;;;14.00;;
71753;SDS011;59593;51.716;7.016;2024-02-21T00:18:40;29.43;;;13.10;;
71753;SDS011;59593;51.716;7.016;2024-02-21T00:21:06;26.07;;;13.40;;
71753;SDS011;59593;51.716;7.016;2024-02-21T00:23:31;23.20;;;12.80;;
71753;SDS011;59593;51.716;7.016;2024-02-21T00:25:57;30.43;;;13.80;;
71753;SDS011;59593;51.716;7.016;2024-02-21T00:28:23;28.53;;;14.13;;
71753;SDS011;59593;51.716;7.016;2024-02-21T00:30:48;25.27;;;13.97;;
71753;SDS011;59593;51.716;7.016;2024-02-21T00:33:16;33.77;;;15.13;;
71753;SDS011;59593;51.716;7.016;2024-02-21T00:35:42;24.90;;;14.63;;
71753;SDS011;59593;51.716;7.016;2024-02-21T00:38:07;28.83;;;13.93;;
71753;SDS011;59593;51.716;7.016;2024-02-21T00:40:33;29.50;;;14.37;;
71753;SDS011;59593;51.716;7.016;2024-02-21T00:43:00;29.57;;;14.63;;
71753;SDS011;59593;51.716;7.016;2024-02-21T00:45:25;29.57;;;14.43;;
71753;SDS011;59593;51.716;7.016;2024-02-21T00:47:51;30.45;;;14.57;;
71753;SDS011;59593;51.716;7.016;2024-02-21T00:50:16;32.83;;;14.00;;
71753;SDS011;59593;51.716;7.016;2024-02-21T00:52:42;26.80;;;13.93;;
71753;SDS011;59593;51.716;7.016;2024-02-21T00:55:08;29.37;;;14.47;;
71753;SDS011;59593;51.716;7.016;2024-02-21T00:57:34;33.97;;;15.17;;
71753;SDS011;59593;51.716;7.016;2024-02-21T01:00:00;34.37;;;14.57;;
71753;SDS011;59593;51.716;7.016;2024-02-21T01:02:27;32.83;;;14.47;;
71753;SDS011;59593;51.716;7.016;2024-02-21T01:04:52;25.90;;;13.17;;
71753;SDS011;59593;51.716;7.016;2024-02-21T01:07:18;28.43;;;14.90;;
71753;SDS011;59593;51.716;7.016;2024-02-21T01:09:44;31.27;;;15.13;;
71753;SDS011;59593;51.716;7.016;2024-02-21T01:12:09;24.23;;;14.00;;
71753;SDS011;59593;51.716;7.016;2024-02-21T01:14:35;27.17;;;15.03;;
71753;SDS011;59593;51.716;7.016;2024-02-21T01:17:00;30.87;;;14.90;;
71753;SDS011;59593;51.716;7.016;2024-02-21T01:19:26;25.90;;;13.93;;
71753;SDS011;59593;51.716;7.016;2024-02-21T01:21:52;27.63;;;14.57;;
71753;SDS011;59593;51.716;7.016;2024-02-21T01:24:17;28.00;;;14.93;;
71753;SDS011;59593;51.716;7.016;2024-02-21T01:26:43;26.57;;;14.23;;
71753;SDS011;59593;51.716;7.016;2024-02-21T01:29:08;28.87;;;15.37;;
71753;SDS011;59593;51.716;7.016;2024-02-21T01:31:34;36.27;;;15.20;;
71753;SDS011;59593;51.716;7.016;2024-02-21T01:34:00;29.43;;;14.40;;
71753;SDS011;59593;51.716;7.016;2024-02-21T01:36:25;33.80;;;14.47;;
71753;SDS011;59593;51.716;7.016;2024-02-21T01:38:51;28.50;;;15.60;;
71753;SDS011;59593;51.716;7.016;2024-02-21T01:41:16;29.87;;;14.70;;
71753;SDS011;59593;51.716;7.016;2024-02-21T01:43:42;25.20;;;14.10;;
71753;SDS011;59593;51.716;7.016;2024-02-21T01:46:08;30.03;;;14.83;;
71753;SDS011;59593;51.716;7.016;2024-02-21T01:48:34;27.37;;;14.13;;
71753;SDS011;59593;51.716;7.016;2024-02-21T01:51:00;29.77;;;15.07;;
71753;SDS011;59593;51.716;7.016;2024-02-21T01:53:29;30.30;;;13.87;;
71753;SDS011;59593;51.716;7.016;2024-02-21T01:55:57;30.60;;;14.27;;
71753;SDS011;59593;51.716;7.016;2024-02-21T01:58:23;26.93;;;14.57;;
71753;SDS011;59593;51.716;7.016;2024-02-21T02:00:49;23.42;;;13.63;;
71753;SDS011;59593;51.716;7.016;2024-02-21T02:03:16;30.57;;;14.37;;
71753;SDS011;59593;51.716;7.016;2024-02-21T02:05:48;30.27;;;14.47;;
71753;SDS011;59593;51.716;7.016;2024-02-21T02:08:15;26.83;;;13.63;;
71753;SDS011;59593;51.716;7.016;2024-02-21T02:10:41;30.20;;;14.20;;
71753;SDS011;59593;51.716;7.016;2024-02-21T02:13:07;27.03;;;14.07;;
71753;SDS011;59593;51.716;7.016;2024-02-21T02:15:40;29.30;;;14.63;;
71753;SDS011;59593;51.716;7.016;2024-02-21T02:18:13;25.13;;;14.10;;
71753;SDS011;59593;51.716;7.016;2024-02-21T02:20:40;28.20;;;14.57;;
71753;SDS011;59593;51.716;7.016;2024-02-21T02:23:17;23.47;;;13.43;;
71753;SDS011;59593;51.716;7.016;2024-02-21T02:25:47;26.77;;;13.73;;
71753;SDS011;59593;51.716;7.016;2024-02-21T02:28:17;26.17;;;12.93;;
71753;SDS011;59593;51.716;7.016;2024-02-21T02:30:43;25.77;;;13.30;;
71753;SDS011;59593;51.716;7.016;2024-02-21T02:33:09;23.87;;;13.07;;
71753;SDS011;59593;51.716;7.016;2024-02-21T02:35:35;22.10;;;13.07;;
71753;SDS011;59593;51.716;7.016;2024-02-21T02:38:01;25.37;;;13.27;;
71753;SDS011;59593;51.716;7.016;2024-02-21T02:40:33;25.43;;;12.43;;
71753;SDS011;59593;51.716;7.016;2024-02-21T02:42:59;23.30;;;12.13;;
71753;SDS011;59593;51.716;7.016;2024-02-21T02:45:25;26.37;;;12.43;;
71753;SDS011;59593;51.716;7.016;2024-02-21T02:47:54;20.40;;;12.07;;
71753;SDS011;59593;51.716;7.016;2024-02-21T02:50:21;25.20;;;12.27;;
71753;SDS011;59593;51.716;7.016;2024-02-21T02:52:47;25.47;;;12.90;;
71753;SDS011;59593;51.716;7.016;2024-02-21T02:55:13;24.23;;;12.57;;
71753;SDS011;59593;51.716;7.016;2024-02-21T02:57:39;24.07;;;12.07;;
71753;SDS011;59593;51.716;7.016;2024-02-21T03:00:07;25.33;;;12.53;;
71753;SDS011;59593;51.716;7.016;2024-02-21T03:02:33;26.40;;;12.37;;
71753;SDS011;59593;51.716;7.016;2024-02-21T03:04:59;24.57;;;12.07;;
71753;SDS011;59593;51.716;7.016;2024-02-21T03:07:25;26.10;;;11.97;;
71753;SDS011;59593;51.716;7.016;2024-02-21T03:09:50;25.13;;;11.93;;
71753;SDS011;59593;51.716;7.016;2024-02-21T03:12:17;23.60;;;11.43;;
71753;SDS011;59593;51.716;7.016;2024-02-21T03:14:52;24.97;;;12.60;;
71753;SDS011;59593;51.716;7.016;2024-02-21T03:17:18;19.97;;;10.87;;
71753;SDS011;59593;51.716;7.016;2024-02-21T03:19:44;23.10;;;10.70;;
71753;SDS011;59593;51.716;7.016;2024-02-21T03:22:09;21.30;;;11.33;;
71753;SDS011;59593;51.716;7.016;2024-02-21T03:24:35;23.80;;;11.93;;
71753;SDS011;59593;51.716;7.016;2024-02-21T03:27:00;23.90;;;11.10;;
71753;SDS011;59593;51.716;7.016;2024-02-21T03:29:26;23.23;;;12.03;;
71753;SDS011;59593;51.716;7.016;2024-02-21T03:31:51;20.27;;;11.17;;
71753;SDS011;59593;51.716;7.016;2024-02-21T03:34:17;24.30;;;11.17;;
71753;SDS011;59593;51.716;7.016;2024-02-21T03:36:43;22.87;;;11.20;;
71753;SDS011;59593;51.716;7.016;2024-02-21T03:39:08;21.83;;;10.93;;
71753;SDS011;59593;51.716;7.016;2024-02-21T03:41:34;20.93;;;11.27;;
71753;SDS011;59593;51.716;7.016;2024-02-21T03:44:00;24.20;;;10.80;;
71753;SDS011;59593;51.716;7.016;2024-02-21T03:46:26;20.17;;;10.40;;
71753;SDS011;59593;51.716;7.016;2024-02-21T03:48:52;21.60;;;10.90;;
71753;SDS011;59593;51.716;7.016;2024-02-21T03:51:18;24.37;;;11.20;;
71753;SDS011;59593;51.716;7.016;2024-02-21T03:53:43;24.47;;;10.77;;
71753;SDS011;59593;51.716;7.016;2024-02-21T03:56:09;19.90;;;10.03;;
71753;SDS011;59593;51.716;7.016;2024-02-21T03:58:35;19.40;;;10.67;;
71753;SDS011;59593;51.716;7.016;2024-02-21T04:01:00;22.80;;;10.50;;
71753;SDS011;59593;51.716;7.016;2024-02-21T04:03:26;22.50;;;10.50;;
71753;SDS011;59593;51.716;7.016;2024-02-21T04:05:52;17.97;;;10.53;;
71753;SDS011;59593;51.716;7.016;2024-02-21T04:08:18;20.43;;;9.90;;
71753;SDS011;59593;51.716;7.016;2024-02-21T04:10:44;18.13;;;11.03;;
71753;SDS011;59593;51.716;7.016;2024-02-21T04:13:09;21.23;;;10.50;;
71753;SDS011;59593;51.716;7.016;2024-02-21T04:15:35;20.00;;;10.20;;
71753;SDS011;59593;51.716;7.016;2024-02-21T04:18:01;19.80;;;10.80;;
71753;SDS011;59593;51.716;7.016;2024-02-21T04:20:28;19.97;;;10.10;;
71753;SDS011;59593;51.716;7.016;2024-02-21T04:22:54;21.33;;;10.20;;
71753;SDS011;59593;51.716;7.016;2024-02-21T04:25:20;20.00;;;10.60;;
71753;SDS011;59593;51.716;7.016;2024-02-21T04:27:46;22.17;;;10.63;;
71753;SDS011;59593;51.716;7.016;2024-02-21T04:30:11;18.73;;;9.93;;
71753;SDS011;59593;51.716;7.016;2024-02-21T04:32:37;19.43;;;9.77;;
71753;SDS011;59593;51.716;7.016;2024-02-21T04:35:04;20.60;;;10.27;;
71753;SDS011;59593;51.716;7.016;2024-02-21T04:37:30;21.40;;;10.00;;
71753;SDS011;59593;51.716;7.016;2024-02-21T04:39:56;16.57;;;9.37;;
71753;SDS011;59593;51.716;7.016;2024-02-21T04:42:21;14.60;;;8.37;;
71753;SDS011;59593;51.716;7.016;2024-02-21T04:44:47;18.70;;;9.47;;
71753;SDS011;59593;51.716;7.016;2024-02-21T04:47:13;21.33;;;9.30;;
71753;SDS011;59593;51.716;7.016;2024-02-21T04:49:38;20.20;;;9.23;;
71753;SDS011;59593;51.716;7.016;2024-02-21T04:52:04;18.80;;;8.87;;
71753;SDS011;59593;51.716;7.016;2024-02-21T04:54:30;19.67;;;9.53;;
71753;SDS011;59593;51.716;7.016;2024-02-21T04:56:56;20.27;;;8.33;;
71753;SDS011;59593;51.716;7.016;2024-02-21T04:59:21;15.63;;;8.03;;
71753;SDS011;59593;51.716;7.016;2024-02-21T05:01:47;18.70;;;9.40;;
71753;SDS011;59593;51.716;7.016;2024-02-21T05:04:13;15.27;;;8.87;;
71753;SDS011;59593;51.716;7.016;2024-02-21T05:06:39;18.17;;;9.67;;
71753;SDS011;59593;51.716;7.016;2024-02-21T05:09:05;16.87;;;8.63;;
71753;SDS011;59593;51.716;7.016;2024-02-21T05:11:31;18.20;;;9.10;;
71753;SDS011;59593;51.716;7.016;2024-02-21T05:13:57;15.70;;;8.63;;
71753;SDS011;59593;51.716;7.016;2024-02-21T05:16:23;19.03;;;8.37;;
71753;SDS011;59593;51.716;7.016;2024-02-21T05:18:48;17.47;;;8.70;;
71753;SDS011;59593;51.716;7.016;2024-02-21T05:21:14;17.90;;;9.73;;
71753;SDS011;59593;51.716;7.016;2024-02-21T05:23:40;15.30;;;8.40;;
71753;SDS011;59593;51.716;7.016;2024-02-21T05:26:05;22.67;;;9.03;;
71753;SDS011;59593;51.716;7.016;2024-02-21T05:28:31;19.93;;;8.30;;
71753;SDS011;59593;51.716;7.016;2024-02-21T05:30:57;16.67;;;8.60;;
71753;SDS011;59593;51.716;7.016;2024-02-21T05:33:23;16.13;;;8.67;;
71753;SDS011;59593;51.716;7.016;2024-02-21T05:35:49;16.43;;;8.43;;
71753;SDS011;59593;51.716;7.016;2024-02-21T05:38:15;15.63;;;7.60;;
71753;SDS011;59593;51.716;7.016;2024-02-21T05:40:40;16.37;;;8.13;;
71753;SDS011;59593;51.716;7.016;2024-02-21T05:43:09;13.97;;;7.93;;
71753;SDS011;59593;51.716;7.016;2024-02-21T05:45:34;17.63;;;7.67;;
71753;SDS011;59593;51.716;7.016;2024-02-21T05:48:00;16.90;;;7.10;;
71753;SDS011;59593;51.716;7.016;2024-02-21T05:50:27;16.53;;;7.57;;
71753;SDS011;59593;51.716;7.016;2024-02-21T05:52:56;14.30;;;7.50;;
71753;SDS011;59593;51.716;7.016;2024-02-21T05:55:22;16.73;;;7.10;;
71753;SDS011;59593;51.716;7.016;2024-02-21T05:57:48;16.63;;;7.70;;
71753;SDS011;59593;51.716;7.016;2024-02-21T06:00:14;12.93;;;6.75;;
71753;SDS011;59593;51.716;7.016;2024-02-21T06:02:40;15.23;;;7.70;;
71753;SDS011;59593;51.716;7.016;2024-02-21T06:05:06;14.33;;;7.23;;
71753;SDS011;59593;51.716;7.016;2024-02-21T06:07:33;15.80;;;7.17;;
71753;SDS011;59593;51.716;7.016;2024-02-21T06:10:02;16.20;;;7.07;;
71753;SDS011;59593;51.716;7.016;2024-02-21T06:12:28;16.90;;;7.50;;
71753;SDS011;59593;51.716;7.016;2024-02-21T06:14:54;17.10;;;6.80;;
71753;SDS011;59593;51.716;7.016;2024-02-21T06:17:19;14.50;;;7.20;;
71753;SDS011;59593;51.716;7.016;2024-02-21T06:19:45;16.67;;;7.40;;
71753;SDS011;59593;51.716;7.016;2024-02-21T06:22:11;12.03;;;6.83;;
71753;SDS011;59593;51.716;7.016;2024-02-21T06:24:37;13.20;;;6.90;;
71753;SDS011;59593;51.716;7.016;2024-02-21T06:27:03;13.40;;;6.60;;
71753;SDS011;59593;51.716;7.016;2024-02-21T06:29:32;15.50;;;7.27;;
71753;SDS011;59593;51.716;7.016;2024-02-21T06:31:58;13.70;;;6.87;;
71753;SDS011;59593;51.716;7.016;2024-02-21T06:34:24;15.03;;;7.50;;
71753;SDS011;59593;51.716;7.016;2024-02-21T06:36:50;15.43;;;7.80;;
71753;SDS011;59593;51.716;7.016;2024-02-21T06:39:16;18.17;;;9.00;;
71753;SDS011;59593;51.716;7.016;2024-02-21T06:41:42;16.17;;;8.67;;
71753;SDS011;59593;51.716;7.016;2024-02-21T06:44:07;18.07;;;8.47;;
71753;SDS011;59593;51.716;7.016;2024-02-21T06:46:33;16.40;;;9.00;;
71753;SDS011;59593;51.716;7.016;2024-02-21T06:48:59;16.30;;;8.23;;
71753;SDS011;59593;51.716;7.016;2024-02-21T06:51:26;19.00;;;9.50;;
71753;SDS011;59593;51.716;7.016;2024-02-21T06:53:52;17.07;;;9.37;;
71753;SDS011;59593;51.716;7.016;2024-02-21T06:56:18;21.70;;;10.13;;
71753;SDS011;59593;51.716;7.016;2024-02-21T06:58:44;19.77;;;9.27;;
71753;SDS011;59593;51.716;7.016;2024-02-21T07:01:09;19.27;;;9.23;;
71753;SDS011;59593;51.716;7.016;2024-02-21T07:03:35;17.03;;;10.00;;
71753;SDS011;59593;51.716;7.016;2024-02-21T07:06:01;21.37;;;9.40;;
71753;SDS011;59593;51.716;7.016;2024-02-21T07:08:27;21.97;;;10.20;;
71753;SDS011;59593;51.716;7.016;2024-02-21T07:10:53;18.07;;;9.20;;
71753;SDS011;59593;51.716;7.016;2024-02-21T07:13:18;16.47;;;9.80;;
71753;SDS011;59593;51.716;7.016;2024-02-21T07:15:44;18.70;;;9.47;;
71753;SDS011;59593;51.716;7.016;2024-02-21T07:18:10;18.13;;;9.23;;
71753;SDS011;59593;51.716;7.016;2024-02-21T07:20:35;19.20;;;9.20;;
71753;SDS011;59593;51.716;7.016;2024-02-21T07:23:06;20.40;;;9.33;;
71753;SDS011;59593;51.716;7.016;2024-02-21T07:25:32;19.57;;;9.70;;
71753;SDS011;59593;51.716;7.016;2024-02-21T07:27:58;18.00;;;9.03;;
71753;SDS011;59593;51.716;7.016;2024-02-21T07:30:23;17.13;;;9.30;;
71753;SDS011;59593;51.716;7.016;2024-02-21T07:32:49;17.50;;;8.90;;
71753;SDS011;59593;51.716;7.016;2024-02-21T07:35:16;18.30;;;8.93;;
71753;SDS011;59593;51.716;7.016;2024-02-21T07:37:42;23.20;;;9.20;;
71753;SDS011;59593;51.716;7.016;2024-02-21T07:40:15;17.27;;;8.50;;
71753;SDS011;59593;51.716;7.016;2024-02-21T07:42:41;21.23;;;9.47;;
71753;SDS011;59593;51.716;7.016;2024-02-21T07:45:08;19.13;;;9.50;;
71753;SDS011;59593;51.716;7.016;2024-02-21T07:47:34;21.30;;;9.60;;
71753;SDS011;59593;51.716;7.016;2024-02-21T07:49:59;21.93;;;8.87;;
71753;SDS011;59593;51.716;7.016;2024-02-21T07:52:25;19.47;;;9.00;;
71753;SDS011;59593;51.716;7.016;2024-02-21T07:54:51;17.83;;;9.33;;
71753;SDS011;59593;51.716;7.016;2024-02-21T07:57:17;20.53;;;9.13;;
71753;SDS011;59593;51.716;7.016;2024-02-21T07:59:43;18.60;;;9.40;;
71753;SDS011;59593;51.716;7.016;2024-02-21T08:02:08;19.13;;;9.67;;
71753;SDS011;59593;51.716;7.016;2024-02-21T08:04:34;20.63;;;8.80;;
71753;SDS011;59593;51.716;7.016;2024-02-21T08:07:03;16.57;;;8.87;;
71753;SDS011;59593;51.716;7.016;2024-02-21T08:09:29;20.43;;;9.67;;
71753;SDS011;59593;51.716;7.016;2024-02-21T08:11:55;17.50;;;8.53;;
71753;SDS011;59593;51.716;7.016;2024-02-21T08:14:21;19.07;;;8.73;;
71753;SDS011;59593;51.716;7.016;2024-02-21T08:16:47;17.57;;;8.93;;
71753;SDS011;59593;51.716;7.016;2024-02-21T08:19:13;21.90;;;8.83;;
71753;SDS011;59593;51.716;7.016;2024-02-21T08:21:39;16.00;;;8.30;;
71753;SDS011;59593;51.716;7.016;2024-02-21T08:24:04;19.00;;;9.00;;
71753;SDS011;59593;51.716;7.016;2024-02-21T08:26:30;17.67;;;8.43;;
71753;SDS011;59593;51.716;7.016;2024-02-21T08:28:59;15.57;;;8.37;;
71753;SDS011;59593;51.716;7.016;2024-02-21T08:31:25;17.70;;;8.37;;
71753;SDS011;59593;51.716;7.016;2024-02-21T08:33:56;19.40;;;7.83;;
71753;SDS011;59593;51.716;7.016;2024-02-21T08:36:27;15.40;;;7.53;;
71753;SDS011;59593;51.716;7.016;2024-02-21T08:38:54;19.03;;;8.07;;
71753;SDS011;59593;51.716;7.016;2024-02-21T08:41:20;15.50;;;7.97;;
71753;SDS011;59593;51.716;7.016;2024-02-21T08:43:48;17.33;;;7.90;;
71753;SDS011;59593;51.716;7.016;2024-02-21T08:46:14;13.20;;;7.07;;
71753;SDS011;59593;51.716;7.016;2024-02-21T08:48:39;14.03;;;6.93;;
71753;SDS011;59593;51.716;7.016;2024-02-21T08:51:05;12.13;;;6.70;;
71753;SDS011;59593;51.716;7.016;2024-02-21T08:53:31;11.70;;;6.73;;
71753;SDS011;59593;51.716;7.016;2024-02-21T08:55:56;14.27;;;7.63;;
71753;SDS011;59593;51.716;7.016;2024-02-21T08:58:22;17.20;;;7.40;;
71753;SDS011;59593;51.716;7.016;2024-02-21T09:00:49;12.93;;;7.33;;
71753;SDS011;59593;51.716;7.016;2024-02-21T09:03:16;14.70;;;6.97;;
71753;SDS011;59593;51.716;7.016;2024-02-21T09:05:42;11.83;;;6.70;;
71753;SDS011;59593;51.716;7.016;2024-02-21T09:08:08;12.17;;;6.00;;
71753;SDS011;59593;51.716;7.016;2024-02-21T09:10:34;8.63;;;5.53;;
71753;SDS011;59593;51.716;7.016;2024-02-21T09:12:59;13.13;;;5.87;;
71753;SDS011;59593;51.716;7.016;2024-02-21T09:15:25;13.47;;;6.33;;
71753;SDS011;59593;51.716;7.016;2024-02-21T09:17:51;11.23;;;5.70;;
71753;SDS011;59593;51.716;7.016;2024-02-21T09:20:17;13.07;;;5.77;;
71753;SDS011;59593;51.716;7.016;2024-02-21T09:22:43;13.43;;;6.37;;
71753;SDS011;59593;51.716;7.016;2024-02-21T09:25:08;13.00;;;6.68;;
71753;SDS011;59593;51.716;7.016;2024-02-21T09:27:37;11.77;;;6.63;;
71753;SDS011;59593;51.716;7.016;2024-02-21T09:30:04;14.77;;;6.80;;
71753;SDS011;59593;51.716;7.016;2024-02-21T09:32:30;11.97;;;7.40;;
71753;SDS011;59593;51.716;7.016;2024-02-21T09:34:57;15.53;;;7.00;;
71753;SDS011;59593;51.716;7.016;2024-02-21T09:37:23;19.88;;;7.32;;
71753;SDS011;59593;51.716;7.016;2024-02-21T09:39:49;16.67;;;7.03;;
71753;SDS011;59593;51.716;7.016;2024-02-21T09:42:17;17.13;;;7.10;;
71753;SDS011;59593;51.716;7.016;2024-02-21T09:44:45;18.93;;;6.97;;
71753;SDS011;59593;51.716;7.016;2024-02-21T09:47:24;15.33;;;6.93;;
71753;SDS011;59593;51.716;7.016;2024-02-21T09:49:59;14.80;;;6.47;;
71753;SDS011;59593;51.716;7.016;2024-02-21T09:52:26;17.40;;;6.90;;
71753;SDS011;59593;51.716;7.016;2024-02-21T09:54:52;11.70;;;7.00;;
71753;SDS011;59593;51.716;7.016;2024-02-21T09:57:18;12.10;;;6.77;;
71753;SDS011;59593;51.716;7.016;2024-02-21T09:59:45;13.80;;;6.23;;
71753;SDS011;59593;51.716;7.016;2024-02-21T10:02:11;9.47;;;6.40;;
71753;SDS011;59593;51.716;7.016;2024-02-21T10:04:37;12.00;;;6.10;;
71753;SDS011;59593;51.716;7.016;2024-02-21T10:07:05;11.53;;;6.30;;
71753;SDS011;59593;51.716;7.016;2024-02-21T10:09:31;10.00;;;5.60;;
71753;SDS011;59593;51.716;7.016;2024-02-21T10:12:10;13.57;;;5.87;;
71753;SDS011;59593;51.716;7.016;2024-02-21T10:14:37;12.33;;;5.87;;
71753;SDS011;59593;51.716;7.016;2024-02-21T10:17:03;14.33;;;5.43;;
71753;SDS011;59593;51.716;7.016;2024-02-21T10:19:34;13.30;;;6.00;;
71753;SDS011;59593;51.716;7.016;2024-02-21T10:22:00;14.57;;;5.60;;
71753;SDS011;59593;51.716;7.016;2024-02-21T10:24:28;10.87;;;5.13;;
71753;SDS011;59593;51.716;7.016;2024-02-21T10:29:28;10.87;;;5.70;;
71753;SDS011;59593;51.716;7.016;2024-02-21T10:32:04;12.13;;;6.13;;
71753;SDS011;59593;51.716;7.016;2024-02-21T10:34:38;12.80;;;5.50;;
71753;SDS011;59593;51.716;7.016;2024-02-21T10:37:05;12.20;;;5.70;;
71753;SDS011;59593;51.716;7.016;2024-02-21T10:39:33;13.40;;;6.00;;
71753;SDS011;59593;51.716;7.016;2024-02-21T10:42:00;14.87;;;5.27;;
71753;SDS011;59593;51.716;7.016;2024-02-21T10:44:29;13.67;;;5.80;;
71753;SDS011;59593;51.716;7.016;2024-02-21T10:46:56;10.77;;;5.10;;
71753;SDS011;59593;51.716;7.016;2024-02-21T10:49:22;9.63;;;5.17;;
71753;SDS011;59593;51.716;7.016;2024-02-21T10:52:06;10.73;;;5.13;;
71753;SDS011;59593;51.716;7.016;2024-02-21T10:54:45;17.70;;;5.60;;
71753;SDS011;59593;51.716;7.016;2024-02-21T10:57:15;10.13;;;4.73;;
71753;SDS011;59593;51.716;7.016;2024-02-21T10:59:42;17.37;;;5.37;;
71753;SDS011;59593;51.716;7.016;2024-02-21T11:02:09;11.87;;;5.33;;
71753;SDS011;59593;51.716;7.016;2024-02-21T11:04:35;11.23;;;6.00;;
71753;SDS011;59593;51.716;7.016;2024-02-21T11:07:03;10.20;;;4.90;;
71753;SDS011;59593;51.716;7.016;2024-02-21T11:09:30;10.95;;;4.90;;
71753;SDS011;59593;51.716;7.016;2024-02-21T11:11:57;9.73;;;4.70;;
71753;SDS011;59593;51.716;7.016;2024-02-21T11:14:26;9.03;;;4.60;;
71753;SDS011;59593;51.716;7.016;2024-02-21T11:16:53;12.73;;;4.93;;
71753;SDS011;59593;51.716;7.016;2024-02-21T11:19:22;9.27;;;4.47;;
71753;SDS011;59593;51.716;7.016;2024-02-21T11:21:48;13.00;;;5.17;;
71753;SDS011;59593;51.716;7.016;2024-02-21T11:27:07;9.17;;;4.60;;
71753;SDS011;59593;51.716;7.016;2024-02-21T11:29:48;9.97;;;4.20;;
71753;SDS011;59593;51.716;7.016;2024-02-21T11:32:19;12.17;;;4.47;;
71753;SDS011;59593;51.716;7.016;2024-02-21T11:34:58;10.17;;;4.50;;
71753;SDS011;59593;51.716;7.016;2024-02-21T11:37:27;7.27;;;4.07;;
71753;SDS011;59593;51.716;7.016;2024-02-21T11:39:57;10.77;;;4.13;;
71753;SDS011;59593;51.716;7.016;2024-02-21T11:42:24;7.57;;;3.60;;
71753;SDS011;59593;51.716;7.016;2024-02-21T11:44:54;8.30;;;4.00;;
71753;SDS011;59593;51.716;7.016;2024-02-21T11:47:23;7.13;;;3.60;;
71753;SDS011;59593;51.716;7.016;2024-02-21T11:49:49;7.40;;;3.97;;
71753;SDS011;59593;51.716;7.016;2024-02-21T11:52:18;7.97;;;4.30;;
71753;SDS011;59593;51.716;7.016;2024-02-21T11:54:50;8.93;;;4.38;;
71753;SDS011;59593;51.716;7.016;2024-02-21T11:57:17;7.70;;;3.93;;
71753;SDS011;59593;51.716;7.016;2024-02-21T11:59:44;11.60;;;4.63;;
71753;SDS011;59593;51.716;7.016;2024-02-21T12:02:11;11.82;;;4.53;;
71753;SDS011;59593;51.716;7.016;2024-02-21T12:04:37;11.13;;;4.15;;
71753;SDS011;59593;51.716;7.016;2024-02-21T12:07:02;11.53;;;5.00;;
71753;SDS011;59593;51.716;7.016;2024-02-21T12:09:29;10.40;;;4.50;;
71753;SDS011;59593;51.716;7.016;2024-02-21T12:12:02;9.93;;;4.72;;
71753;SDS011;59593;51.716;7.016;2024-02-21T12:14:32;9.93;;;4.47;;
71753;SDS011;59593;51.716;7.016;2024-02-21T12:16:59;12.03;;;4.57;;
71753;SDS011;59593;51.716;7.016;2024-02-21T12:19:26;9.95;;;4.25;;
71753;SDS011;59593;51.716;7.016;2024-02-21T12:21:54;10.43;;;4.43;;
71753;SDS011;59593;51.716;7.016;2024-02-21T12:26:52;9.77;;;4.25;;
71753;SDS011;59593;51.716;7.016;2024-02-21T12:29:21;9.13;;;4.03;;
71753;SDS011;59593;51.716;7.016;2024-02-21T12:31:49;7.97;;;3.97;;
71753;SDS011;59593;51.716;7.016;2024-02-21T12:34:15;10.82;;;4.28;;
71753;SDS011;59593;51.716;7.016;2024-02-21T12:36:42;9.05;;;4.15;;
71753;SDS011;59593;51.716;7.016;2024-02-21T12:39:09;10.20;;;4.18;;
71753;SDS011;59593;51.716;7.016;2024-02-21T12:41:37;12.65;;;4.30;;
71753;SDS011;59593;51.716;7.016;2024-02-21T12:44:04;8.25;;;3.90;;
71753;SDS011;59593;51.716;7.016;2024-02-21T12:46:33;8.53;;;4.13;;
71753;SDS011;59593;51.716;7.016;2024-02-21T12:49:00;9.77;;;4.32;;
71753;SDS011;59593;51.716;7.016;2024-02-21T12:51:29;7.97;;;3.72;;
71753;SDS011;59593;51.716;7.016;2024-02-21T12:53:58;7.30;;;3.95;;
71753;SDS011;59593;51.716;7.016;2024-02-21T12:56:24;10.00;;;4.57;;
71753;SDS011;59593;51.716;7.016;2024-02-21T12:58:52;10.70;;;4.45;;
71753;SDS011;59593;51.716;7.016;2024-02-21T13:01:18;9.55;;;4.65;;
71753;SDS011;59593;51.716;7.016;2024-02-21T13:03:43;9.07;;;4.10;;
71753;SDS011;59593;51.716;7.016;2024-02-21T13:06:09;8.15;;;3.95;;
71753;SDS011;59593;51.716;7.016;2024-02-21T13:08:36;8.82;;;4.28;;
71753;SDS011;59593;51.716;7.016;2024-02-21T13:11:02;8.70;;;3.72;;
71753;SDS011;59593;51.716;7.016;2024-02-21T13:13:29;8.27;;;4.40;;
71753;SDS011;59593;51.716;7.016;2024-02-21T13:15:54;9.32;;;4.13;;
71753;SDS011;59593;51.716;7.016;2024-02-21T13:18:20;7.90;;;3.80;;
71753;SDS011;59593;51.716;7.016;2024-02-21T13:20:46;10.38;;;4.13;;
71753;SDS011;59593;51.716;7.016;2024-02-21T13:23:12;8.55;;;4.10;;
71753;SDS011;59593;51.716;7.016;2024-02-21T13:25:38;8.43;;;3.83;;
71753;SDS011;59593;51.716;7.016;2024-02-21T13:28:03;8.70;;;3.90;;
71753;SDS011;59593;51.716;7.016;2024-02-21T13:30:30;9.13;;;4.35;;
71753;SDS011;59593;51.716;7.016;2024-02-21T13:32:55;11.30;;;3.88;;
71753;SDS011;59593;51.716;7.016;2024-02-21T13:35:21;12.43;;;4.03;;
71753;SDS011;59593;51.716;7.016;2024-02-21T13:37:47;9.77;;;4.40;;
71753;SDS011;59593;51.716;7.016;2024-02-21T13:40:12;7.20;;;3.60;;
71753;SDS011;59593;51.716;7.016;2024-02-21T13:42:38;9.77;;;3.70;;
71753;SDS011;59593;51.716;7.016;2024-02-21T13:45:05;7.53;;;3.58;;
71753;SDS011;59593;51.716;7.016;2024-02-21T13:47:32;11.00;;;3.72;;
71753;SDS011;59593;51.716;7.016;2024-02-21T13:50:04;9.75;;;3.63;;
71753;SDS011;59593;51.716;7.016;2024-02-21T13:52:34;11.77;;;4.18;;
71753;SDS011;59593;51.716;7.016;2024-02-21T13:54:59;10.00;;;3.78;;
71753;SDS011;59593;51.716;7.016;2024-02-21T13:57:25;8.80;;;3.75;;
71753;SDS011;59593;51.716;7.016;2024-02-21T13:59:50;9.25;;;3.65;;
71753;SDS011;59593;51.716;7.016;2024-02-21T14:02:16;10.10;;;3.60;;
71753;SDS011;59593;51.716;7.016;2024-02-21T14:04:42;8.63;;;3.53;;
71753;SDS011;59593;51.716;7.016;2024-02-21T14:07:07;9.23;;;3.70;;
71753;SDS011;59593;51.716;7.016;2024-02-21T14:09:33;11.35;;;4.00;;
71753;SDS011;59593;51.716;7.016;2024-02-21T14:11:59;9.07;;;3.50;;
71753;SDS011;59593;51.716;7.016;2024-02-21T14:14:25;8.23;;;3.58;;
71753;SDS011;59593;51.716;7.016;2024-02-21T14:16:51;11.88;;;3.60;;
71753;SDS011;59593;51.716;7.016;2024-02-21T14:19:16;8.83;;;3.40;;
71753;SDS011;59593;51.716;7.016;2024-02-21T14:21:43;7.95;;;3.30;;
71753;SDS011;59593;51.716;7.016;2024-02-21T14:24:09;10.23;;;3.60;;
71753;SDS011;59593;51.716;7.016;2024-02-21T14:26:36;9.55;;;3.78;;
71753;SDS011;59593;51.716;7.016;2024-02-21T14:29:02;10.00;;;3.40;;
71753;SDS011;59593;51.716;7.016;2024-02-21T14:31:29;10.25;;;3.38;;
71753;SDS011;59593;51.716;7.016;2024-02-21T14:33:57;8.85;;;3.15;;
71753;SDS011;59593;51.716;7.016;2024-02-21T14:36:22;9.32;;;3.35;;
71753;SDS011;59593;51.716;7.016;2024-02-21T14:38:49;7.95;;;3.30;;